Time;durP1;ratioP1;P1;durP2;ratioP2;P2;SDS_P1;SDS_P2;PMS_P1;PMS_P2;Temp;Humidity;BMP_temperature;BMP_pressure;BME280_temperature;BME280_humidity;BME280_pressure;Samples;Min_cycle;Max_cycle;Signal;HPM_P1;HPM_P2
2023/02/04 00:01:48;;;;;;;0.00;0.00;;;;;;;7.77;100.00;102418.56;4912413;29;20079;-75
2023/02/04 00:04:13;;;;;;;0.00;0.00;;;;;;;7.74;100.00;102416.25;4905115;29;20021;-77
2023/02/04 00:06:41;;;;;;;0.00;0.00;;;;;;;7.74;100.00;102408.09;4912531;29;20431;-77
2023/02/04 00:09:07;;;;;;;0.00;0.00;;;;;;;7.82;100.00;102418.81;4910079;29;20043;-75
2023/02/04 00:11:33;;;;;;;0.00;0.00;;;;;;;7.83;100.00;102415.06;4898567;29;20098;-77
2023/02/04 00:13:58;;;;;;;0.00;0.00;;;;;;;7.72;100.00;102399.25;4909312;29;20145;-77
2023/02/04 00:16:23;;;;;;;0.00;0.00;;;;;;;7.87;100.00;102420.97;4894114;29;20036;-77
2023/02/04 00:18:49;;;;;;;0.00;0.00;;;;;;;7.77;100.00;102391.34;4894182;29;20381;-76
2023/02/04 00:21:15;;;;;;;0.00;0.00;;;;;;;7.83;100.00;102406.88;4888869;29;20028;-77
2023/02/04 00:23:43;;;;;;;0.00;0.00;;;;;;;7.85;100.00;102404.78;4893694;29;20135;-77
2023/02/04 00:26:08;;;;;;;0.00;0.00;;;;;;;7.82;100.00;102394.28;4897510;29;20021;-77
2023/02/04 00:28:34;;;;;;;0.00;0.00;;;;;;;7.90;100.00;102406.06;4914781;29;20570;-76
2023/02/04 00:30:59;;;;;;;0.00;0.00;;;;;;;7.99;100.00;102407.63;4895302;29;20031;-76
2023/02/04 00:33:25;;;;;;;0.00;0.00;;;;;;;7.92;100.00;102395.84;4898346;29;20039;-77
2023/02/04 00:35:51;;;;;;;0.00;0.00;;;;;;;7.96;100.00;102394.41;4911710;29;20039;-75
2023/02/04 00:38:16;;;;;;;0.00;0.00;;;;;;;8.08;100.00;102411.84;4927286;29;20024;-77
2023/02/04 00:40:42;;;;;;;0.00;0.00;;;;;;;8.07;100.00;102407.44;4919726;29;20032;-78
2023/02/04 00:43:07;;;;;;;0.00;0.00;;;;;;;7.97;100.00;102396.06;4897016;29;20031;-77
2023/02/04 00:45:32;;;;;;;0.00;0.00;;;;;;;8.05;100.00;102401.38;4892946;29;20031;-76
2023/02/04 00:47:58;;;;;;;0.00;0.00;;;;;;;8.01;100.00;102391.91;4914456;29;20431;-76
2023/02/04 00:50:23;;;;;;;0.00;0.00;;;;;;;8.03;100.00;102395.25;4899800;29;20023;-76
2023/02/04 00:52:51;;;;;;;0.00;0.00;;;;;;;8.02;100.00;102388.16;4898215;29;20036;-76
2023/02/04 00:55:17;;;;;;;0.00;0.00;;;;;;;8.02;100.00;102388.16;4920071;29;20074;-77
2023/02/04 00:57:45;;;;;;;0.00;0.00;;;;;;;8.18;100.00;102416.94;4916437;29;20031;-77
2023/02/04 01:00:12;;;;;;;0.00;0.00;;;;;;;8.13;100.00;102411.25;4918330;29;20032;-77
2023/02/04 01:02:39;;;;;;;0.00;0.00;;;;;;;8.11;100.00;102406.00;4912500;29;20068;-77
2023/02/04 01:05:06;;;;;;;0.00;0.00;;;;;;;8.04;100.00;102399.66;4924946;29;20039;-76
2023/02/04 01:07:31;;;;;;;0.00;0.00;;;;;;;8.04;100.00;102407.84;4897317;29;20028;-76
2023/02/04 01:09:57;;;;;;;0.00;0.00;;;;;;;7.97;100.00;102406.97;4891526;29;20422;-77
2023/02/04 01:12:24;;;;;;;0.00;0.00;;;;;;;8.05;100.00;102431.34;4885493;29;20114;-78
2023/02/04 01:14:52;;;;;;;0.00;0.00;;;;;;;7.95;100.00;102419.97;4898833;29;20471;-78
2023/02/04 01:17:18;;;;;;;0.00;0.00;;;;;;;7.88;100.00;102414.44;4905182;29;20038;-77
2023/02/04 01:19:44;;;;;;;0.00;0.00;;;;;;;7.91;100.00;102419.50;4903318;29;20039;-77
2023/02/04 01:22:09;;;;;;;0.00;0.00;;;;;;;7.85;100.00;102425.75;4909398;29;20031;-77
2023/02/04 01:24:35;;;;;;;0.00;0.00;;;;;;;7.78;100.00;102420.28;4897257;29;20051;-77
2023/02/04 01:27:03;;;;;;;0.00;0.00;;;;;;;7.78;100.00;102430.31;4893883;29;20056;-77
2023/02/04 01:29:28;;;;;;;0.00;0.00;;;;;;;7.73;100.00;102430.91;4897130;29;20039;-76
2023/02/04 01:31:54;;;;;;;0.00;0.00;;;;;;;7.77;100.00;102440.38;4918877;29;20214;-78
2023/02/04 01:34:19;;;;;;;0.00;0.00;;;;;;;7.75;100.00;102445.16;4887244;29;20039;-77
2023/02/04 01:36:44;;;;;;;0.00;0.00;;;;;;;7.63;100.00;102427.69;4928405;29;20070;-79
2023/02/04 01:39:12;;;;;;;0.00;0.00;;;;;;;7.68;100.00;102431.50;4907263;29;20512;-79
2023/02/04 01:41:38;;;;;;;0.00;0.00;;;;;;;7.74;100.00;102440.75;4925872;29;20074;-79
2023/02/04 01:44:04;;;;;;;0.00;0.00;;;;;;;7.60;100.00;102422.63;4897016;29;20048;-78
2023/02/04 01:46:29;;;;;;;0.00;0.00;;;;;;;7.74;100.00;102454.38;4910022;29;20078;-79
2023/02/04 01:48:55;;;;;;;0.00;0.00;;;;;;;7.75;100.00;102453.31;4909399;29;20044;-77
2023/02/04 01:51:27;;;;;;;0.00;0.00;;;;;;;7.72;100.00;102444.72;4894917;29;20039;-74
2023/02/04 01:53:54;;;;;;;0.00;0.00;;;;;;;7.74;100.00;102451.66;4914504;29;20079;-76
2023/02/04 01:56:22;;;;;;;0.00;0.00;;;;;;;7.62;100.00;102432.28;4913369;29;21049;-77
2023/02/04 01:58:48;;;;;;;0.00;0.00;;;;;;;7.74;100.00;102446.22;4911707;29;20151;-78
2023/02/04 02:01:35;;;;;;;0.00;0.00;;;;;;;7.69;100.00;102444.09;4917714;29;20383;-78
2023/02/04 02:04:01;;;;;;;0.00;0.00;;;;;;;7.74;100.00;102453.53;4909249;29;20051;-77
2023/02/04 02:06:27;;;;;;;0.00;0.00;;;;;;;7.69;100.00;102443.22;4916257;29;20052;-77
2023/02/04 02:08:53;;;;;;;0.00;0.00;;;;;;;7.65;100.00;102439.22;4908114;29;20042;-78
2023/02/04 02:11:19;;;;;;;0.00;0.00;;;;;;;7.70;100.00;102444.91;4919460;29;20028;-76
2023/02/04 02:13:44;;;;;;;0.00;0.00;;;;;;;7.62;100.00;102437.75;4914228;29;20124;-77
2023/02/04 02:16:10;;;;;;;0.00;0.00;;;;;;;7.68;100.00;102441.53;4893160;29;20032;-78
2023/02/04 02:18:35;;;;;;;0.00;0.00;;;;;;;7.60;100.00;102433.53;4914527;29;20035;-77
2023/02/04 02:21:07;;;;;;;0.00;0.00;;;;;;;7.58;100.00;102432.88;4898052;29;20514;-78
2023/02/04 02:23:59;;;;;;;0.00;0.00;;;;;;;7.66;100.00;102443.63;4915903;29;20078;-77
2023/02/04 02:26:28;;;;;;;0.00;0.00;;;;;;;7.59;100.00;102431.84;4917262;28;20039;-78
2023/02/04 02:28:54;;;;;;;0.00;0.00;;;;;;;7.61;100.00;102440.66;4923978;29;20091;-77
2023/02/04 02:31:21;;;;;;;0.00;0.00;;;;;;;7.48;100.00;102425.88;4905464;29;20742;-77
2023/02/04 02:33:50;;;;;;;0.00;0.00;;;;;;;7.59;100.00;102437.28;4915968;29;20071;-77
2023/02/04 02:36:16;;;;;;;0.00;0.00;;;;;;;7.54;100.00;102428.88;4906041;29;20032;-76
2023/02/04 02:38:41;;;;;;;0.00;0.00;;;;;;;7.60;100.00;102438.97;4914380;29;20115;-73
2023/02/04 02:41:09;;;;;;;0.00;0.00;;;;;;;7.53;100.00;102427.19;4936275;29;20160;-76
2023/02/04 02:43:36;;;;;;;0.00;0.00;;;;;;;7.52;100.00;102429.06;4901312;29;20066;-77
2023/02/04 02:46:02;;;;;;;0.00;0.00;;;;;;;7.51;100.00;102430.94;4923088;29;20031;-76
2023/02/04 02:48:29;;;;;;;0.00;0.00;;;;;;;7.51;100.00;102436.38;4930443;29;20036;-75
2023/02/04 02:50:54;;;;;;;0.00;0.00;;;;;;;7.51;100.00;102432.81;4914864;29;20032;-76
2023/02/04 02:53:20;;;;;;;0.00;0.00;;;;;;;7.50;100.00;102428.41;4907874;29;20043;-77
2023/02/04 02:55:47;;;;;;;0.00;0.00;;;;;;;7.46;100.00;102424.38;4885297;29;20514;-77
2023/02/04 02:58:28;;;;;;;0.00;0.00;;;;;;;7.50;100.00;102434.72;4904653;29;20035;-76
2023/02/04 03:00:54;;;;;;;0.00;0.00;;;;;;;7.53;100.00;102444.34;4899600;29;20136;-77
2023/02/04 03:03:27;;;;;;;0.00;0.00;;;;;;;7.55;100.00;102442.28;4912344;29;20027;-77
2023/02/04 03:06:19;;;;;;;0.00;0.00;;;;;;;7.55;100.00;102436.84;4906487;29;20119;-77
2023/02/04 03:08:47;;;;;;;0.00;0.00;;;;;;;7.55;100.00;102435.97;4899708;29;20042;-76
2023/02/04 03:11:12;;;;;;;0.00;0.00;;;;;;;7.48;100.00;102431.31;4906344;29;20086;-77
2023/02/04 03:13:38;;;;;;;0.00;0.00;;;;;;;7.53;100.00;102446.25;4892145;29;20036;-77
2023/02/04 03:16:05;;;;;;;0.00;0.00;;;;;;;7.50;100.00;102442.88;4889342;29;20415;-76
2023/02/04 03:18:31;;;;;;;0.00;0.00;;;;;;;7.47;100.00;102435.09;4899640;29;20027;-77
2023/02/04 03:20:57;;;;;;;0.00;0.00;;;;;;;7.54;100.00;102445.22;4897487;29;20032;-76
2023/02/04 03:23:24;;;;;;;0.00;0.00;;;;;;;7.54;100.00;102439.75;4897059;29;20024;-75
2023/02/04 03:25:50;;;;;;;0.00;0.00;;;;;;;7.58;100.00;102441.03;4909505;29;20106;-76
2023/02/04 03:28:16;;;;;;;0.00;0.00;;;;;;;7.56;100.00;102432.22;4909861;29;20058;-75
2023/02/04 03:30:41;;;;;;;0.00;0.00;;;;;;;7.61;100.00;102435.22;4890178;29;20031;-75
2023/02/04 03:33:07;;;;;;;0.00;0.00;;;;;;;7.60;100.00;102433.53;4876557;29;20156;-74
2023/02/04 03:35:32;;;;;;;0.00;0.00;;;;;;;7.57;100.00;102436.66;4912083;29;20031;-74
2023/02/04 03:37:57;;;;;;;0.00;0.00;;;;;;;7.57;100.00;102444.81;4896638;29;21636;-77
2023/02/04 03:40:23;;;;;;;0.00;0.00;;;;;;;7.51;100.00;102441.81;4899655;29;20563;-77
2023/02/04 03:42:48;;;;;;;0.00;0.00;;;;;;;7.48;100.00;102425.06;4877028;29;20052;-76
2023/02/04 03:45:14;;;;;;;0.00;0.00;;;;;;;7.49;100.00;102430.31;4888040;29;20028;-76
2023/02/04 03:47:39;;;;;;;0.00;0.00;;;;;;;7.60;100.00;102444.41;4936516;29;20470;-76
2023/02/04 03:50:05;;;;;;;0.00;0.00;;;;;;;7.53;100.00;102432.63;4924086;29;20067;-76
2023/02/04 03:52:31;;;;;;;0.00;0.00;;;;;;;7.59;100.00;102438.09;4884020;29;20091;-76
2023/02/04 03:54:56;;;;;;;0.00;0.00;;;;;;;7.59;100.00;102440.84;4877231;29;20032;-77
2023/02/04 03:57:21;;;;;;;0.00;0.00;;;;;;;7.58;100.00;102432.88;4878213;29;20031;-77
2023/02/04 03:59:47;;;;;;;0.00;0.00;;;;;;;7.57;100.00;102432.03;4882937;29;20042;-76
2023/02/04 04:02:12;;;;;;;0.00;0.00;;;;;;;7.56;100.00;102429.50;4874404;29;20024;-75
2023/02/04 04:04:38;;;;;;;0.00;0.00;;;;;;;7.53;100.00;102438.06;4883145;29;20031;-76
2023/02/04 04:07:03;;;;;;;0.00;0.00;;;;;;;7.55;100.00;102438.72;4881523;29;20122;-76
2023/02/04 04:09:29;;;;;;;0.00;0.00;;;;;;;7.45;100.00;102426.28;4892130;29;20095;-75
2023/02/04 04:11:54;;;;;;;0.00;0.00;;;;;;;7.58;100.00;102443.75;4904924;29;20386;-76
2023/02/04 04:14:19;;;;;;;0.00;0.00;;;;;;;7.54;100.00;102435.16;4892754;29;20032;-76
2023/02/04 04:16:45;;;;;;;0.00;0.00;;;;;;;7.44;100.00;102424.59;4924223;29;20024;-75
2023/02/04 04:19:10;;;;;;;0.00;0.00;;;;;;;7.44;100.00;102435.47;4890052;29;20027;-76
2023/02/04 04:21:36;;;;;;;0.00;0.00;;;;;;;7.44;100.00;102440.91;4875727;29;20035;-77
2023/02/04 04:24:01;;;;;;;0.00;0.00;;;;;;;7.42;100.00;102443.00;4896655;29;20024;-76
2023/02/04 04:26:27;;;;;;;0.00;0.00;;;;;;;7.42;100.00;102448.44;4887891;29;20056;-75
2023/02/04 04:28:52;;;;;;;0.00;0.00;;;;;;;7.41;100.00;102457.66;4936128;29;20027;-76
2023/02/04 04:31:18;;;;;;;0.00;0.00;;;;;;;7.34;100.00;102456.75;4929997;29;20036;-75
2023/02/04 04:33:43;;;;;;;0.00;0.00;;;;;;;7.33;100.00;102452.34;4905533;29;20048;-75
2023/02/04 04:36:09;;;;;;;0.00;0.00;;;;;;;7.32;100.00;102459.66;4912395;29;20067;-74
2023/02/04 04:38:34;;;;;;;0.00;0.00;;;;;;;7.37;100.00;102463.69;4908838;29;20074;-76
2023/02/04 04:41:02;;;;;;;0.00;0.00;;;;;;;7.22;100.00;102439.25;4910865;29;20027;-75
2023/02/04 04:43:27;;;;;;;0.00;0.00;;;;;;;7.35;100.00;102455.72;4882781;29;20470;-76
2023/02/04 04:45:53;;;;;;;0.00;0.00;;;;;;;7.41;100.00;102463.09;4881838;29;20122;-76
2023/02/04 04:48:20;;;;;;;0.00;0.00;;;;;;;7.42;100.00;102464.78;4897992;29;20024;-76
2023/02/04 04:50:45;;;;;;;0.00;0.00;;;;;;;7.34;100.00;102452.16;4919918;29;20111;-75
2023/02/04 04:53:11;;;;;;;0.00;0.00;;;;;;;7.29;100.00;102454.59;4916020;29;20028;-75
2023/02/04 04:55:39;;;;;;;0.00;0.00;;;;;;;7.29;100.00;102459.22;4901969;29;20071;-75
2023/02/04 04:58:06;;;;;;;0.00;0.00;;;;;;;7.33;100.00;102460.53;4899798;29;20601;-76
2023/02/04 05:00:32;;;;;;;0.00;0.00;;;;;;;7.25;100.00;102441.59;4923322;29;20038;-76
2023/02/04 05:02:57;;;;;;;0.00;0.00;;;;;;;7.23;100.00;102449.09;4916651;29;20036;-76
2023/02/04 05:05:23;;;;;;;0.10;0.10;;;;;;;7.26;100.00;102456.91;4888806;29;20035;-76
2023/02/04 05:07:48;;;;;;;0.00;0.00;;;;;;;7.31;100.00;102465.28;4918824;29;20062;-75
2023/02/04 05:10:15;;;;;;;0.00;0.00;;;;;;;7.30;100.00;102474.50;4898033;29;20471;-77
2023/02/04 05:12:40;;;;;;;0.00;0.00;;;;;;;7.28;100.00;102458.34;4886824;29;20028;-76
2023/02/04 05:15:06;;;;;;;0.00;0.00;;;;;;;7.26;100.00;102455.00;4902721;29;20055;-76
2023/02/04 05:17:31;;;;;;;0.00;0.00;;;;;;;7.29;100.00;102467.38;4901842;29;20524;-79
2023/02/04 05:19:57;;;;;;;0.00;0.00;;;;;;;7.25;100.00;102456.03;4901470;29;20036;-77
2023/02/04 05:22:22;;;;;;;0.00;0.00;;;;;;;7.26;100.00;102454.16;4910597;29;20038;-78
2023/02/04 05:24:48;;;;;;;0.00;0.00;;;;;;;7.33;100.00;102471.41;4891198;29;20023;-75
2023/02/04 05:27:13;;;;;;;0.00;0.00;;;;;;;7.30;100.00;102467.19;4883462;29;20495;-75
2023/02/04 05:29:39;;;;;;;0.00;0.00;;;;;;;7.31;100.00;102466.13;4857620;29;20079;-75
2023/02/04 05:32:04;;;;;;;0.00;0.00;;;;;;;7.30;100.00;102463.59;4869934;29;20029;-76
2023/02/04 05:34:31;;;;;;;0.00;0.00;;;;;;;7.32;100.00;102464.28;4871339;29;20497;-74
2023/02/04 05:36:56;;;;;;;0.00;0.00;;;;;;;7.31;100.00;102457.13;4880885;29;20036;-76
2023/02/04 05:39:21;;;;;;;0.00;0.00;;;;;;;7.38;100.00;102468.94;4893241;29;20040;-76
2023/02/04 05:41:47;;;;;;;0.00;0.00;;;;;;;7.30;100.00;102455.44;4887375;29;20066;-75
2023/02/04 05:44:12;;;;;;;0.00;0.00;;;;;;;7.37;100.00;102467.25;4885906;29;20032;-76
2023/02/04 05:46:38;;;;;;;0.00;0.00;;;;;;;7.37;100.00;102467.25;4871929;29;20435;-76
2023/02/04 05:49:04;;;;;;;0.00;0.00;;;;;;;7.28;100.00;102457.53;4888381;29;20040;-75
2023/02/04 05:51:30;;;;;;;0.00;0.00;;;;;;;7.27;100.00;102455.84;4902930;29;20424;-75
2023/02/04 05:53:55;;;;;;;0.00;0.00;;;;;;;7.34;100.00;102467.63;4874589;29;20120;-75
2023/02/04 05:56:21;;;;;;;0.00;0.00;;;;;;;7.18;100.00;102451.56;4887435;29;20036;-77
2023/02/04 05:58:46;;;;;;;0.00;0.00;;;;;;;7.28;100.00;102458.34;4904739;29;20471;-75
2023/02/04 06:01:12;;;;;;;0.00;0.00;;;;;;;7.29;100.00;102462.78;4876207;29;20028;-74
2023/02/04 06:03:37;;;;;;;0.00;0.00;;;;;;;7.35;100.00;102469.31;4887587;29;20052;-74
2023/02/04 06:06:03;;;;;;;0.00;0.00;;;;;;;7.29;100.00;102464.66;4893810;29;20024;-74
2023/02/04 06:08:28;;;;;;;0.00;0.00;;;;;;;7.32;100.00;102464.28;4897862;29;20048;-79
2023/02/04 06:10:56;;;;;;;0.00;0.00;;;;;;;7.38;100.00;102478.97;4910116;29;20379;-82
2023/02/04 06:13:24;;;;;;;0.00;0.00;;;;;;;7.18;100.00;102459.72;4916742;29;20020;-86
2023/02/04 06:15:59;;;;;;;0.00;0.00;;;;;;;7.16;100.00;102459.91;4922930;29;20032;-85
2023/02/04 07:29:09;;;;;;;0.00;0.00;;;;;;;7.37;100.00;102505.34;4937985;29;20039;-85
2023/02/04 07:31:52;;;;;;;0.00;0.00;;;;;;;7.25;100.00;102479.69;4905673;29;20075;-84
2023/02/04 07:34:29;;;;;;;0.00;0.00;;;;;;;7.22;100.00;102485.53;4917940;29;20608;-86
2023/02/04 07:37:40;;;;;;;0.00;0.00;;;;;;;7.26;100.00;102497.72;4914212;29;20039;-84
2023/02/04 07:40:20;;;;;;;;;;;;;;;;;;;;;
2023/02/04 07:43:08;;;;;;;0.00;0.00;;;;;;;7.27;100.00;102515.69;4935608;29;20104;-84
2023/02/04 07:45:34;;;;;;;0.00;0.00;;;;;;;7.08;100.00;102496.25;4907569;29;20031;-87
2023/02/04 07:48:09;;;;;;;0.00;0.00;;;;;;;7.03;99.85;102509.59;4927205;29;20492;-83
2023/02/04 07:50:58;;;;;;;0.00;0.00;;;;;;;7.19;99.16;102534.88;4910960;29;20050;-85
2023/02/04 07:53:24;;;;;;;0.00;0.00;;;;;;;7.14;99.44;102530.88;4907274;29;20055;-79
2023/02/04 07:55:49;;;;;;;0.00;0.00;;;;;;;7.07;99.50;102527.22;4874504;29;20478;-78
2023/02/04 07:58:22;;;;;;;0.00;0.00;;;;;;;7.12;99.51;102535.63;4881543;29;20028;-79
2023/02/04 08:00:47;;;;;;;0.00;0.00;;;;;;;7.04;99.65;102518.56;4885000;29;20043;-79
2023/02/04 08:03:13;;;;;;;0.00;0.00;;;;;;;7.12;99.46;102530.19;4915207;29;20031;-85
2023/02/04 08:05:48;;;;;;;;;;;;;;;;;;;;;
2023/02/04 08:08:30;;;;;;;;;;;;;;;;;;;;;
2023/02/04 08:10:58;;;;;;;0.00;0.00;;;;;;;7.33;99.13;102563.94;4926596;29;20072;-82
2023/02/04 08:13:24;;;;;;;0.00;0.00;;;;;;;7.23;99.49;102536.16;4896926;29;20106;-83
2023/02/04 08:15:58;;;;;;;0.00;0.00;;;;;;;7.33;99.52;102547.63;4907894;29;20119;-81
2023/02/04 08:18:24;;;;;;;;;;;;;;;7.43;99.51;102553.59;4904744;29;20020;-89
2023/02/04 08:21:01;;;;;;;0.00;0.00;;;;;;;7.25;99.23;102524.06;4912503;29;20209;-84
2023/02/04 08:23:40;;;;;;;0.00;0.00;;;;;;;7.30;99.08;102527.06;4912200;29;20747;-83
2023/02/04 08:26:22;;;;;;;0.00;0.00;;;;;;;7.50;99.12;102553.66;4920327;29;20023;-84
2023/02/04 08:29:18;;;;;;;;;;;;;;;;;;;;;
2023/02/04 08:31:36;;;;;;;0.00;0.00;;;;;;;7.56;98.90;102543.88;4897750;29;20062;-79
2023/02/04 08:34:04;;;;;;;0.00;0.00;;;;;;;7.71;98.42;102566.44;4897651;29;20028;-84
2023/02/04 08:36:31;;;;;;;0.00;0.00;;;;;;;7.80;98.88;102576.16;4906739;29;20024;-77
2023/02/04 08:39:06;;;;;;;;;;;;;;;;;;;;;
2023/02/04 08:41:32;;;;;;;0.00;0.00;;;;;;;7.77;97.62;102573.81;4907467;29;20024;-82
2023/02/04 08:44:00;;;;;;;0.00;0.00;;;;;;;7.76;96.92;102591.19;4878577;29;20782;-80
2023/02/04 08:46:29;;;;;;;0.00;0.00;;;;;;;7.76;96.65;102585.75;4880717;29;20416;-80
2023/02/04 08:48:54;;;;;;;0.00;0.00;;;;;;;7.62;96.37;102567.59;4878895;29;20036;-81
2023/02/04 08:51:20;;;;;;;0.00;0.00;;;;;;;7.66;95.93;102579.78;4896660;29;20028;-81
2023/02/04 08:53:52;;;;;;;0.00;0.00;;;;;;;7.68;96.24;102588.59;4881723;29;20040;-80
2023/02/04 08:56:19;;;;;;;0.00;0.00;;;;;;;7.67;95.58;102576.03;4888253;29;20035;-81
2023/02/04 08:59:00;;;;;;;0.00;0.00;;;;;;;7.57;95.34;102570.06;4879624;29;20072;-80
2023/02/04 09:01:25;;;;;;;0.00;0.00;;;;;;;7.51;94.50;102560.78;4913948;29;20024;-81
2023/02/04 09:04:08;;;;;;;;;;;;;;;;;;;;;
2023/02/04 09:06:34;;;;;;;0.00;0.00;;;;;;;7.62;94.99;102583.94;4897197;29;20047;-79
2023/02/04 09:09:02;;;;;;;0.00;0.00;;;;;;;7.61;94.45;102574.91;4869937;29;20131;-79
2023/02/04 09:11:30;;;;;;;0.00;0.00;;;;;;;7.61;93.69;102574.09;4894639;29;20028;-80
2023/02/04 09:14:02;;;;;;;0.00;0.00;;;;;;;7.74;93.47;102595.16;4886178;29;20024;-79
2023/02/04 09:16:28;;;;;;;0.00;0.00;;;;;;;7.67;93.78;102587.75;4882369;29;20426;-81
2023/02/04 09:18:54;;;;;;;0.00;0.00;;;;;;;7.69;93.62;102584.84;4875883;29;20036;-78
2023/02/04 09:21:19;;;;;;;0.00;0.00;;;;;;;7.74;92.89;102590.56;4878607;29;20790;-80
2023/02/04 09:23:45;;;;;;;0.00;0.00;;;;;;;7.87;92.86;102606.19;4890226;29;20040;-79
2023/02/04 09:26:11;;;;;;;0.00;0.00;;;;;;;7.75;92.97;102583.22;4891746;29;20040;-82
2023/02/04 09:28:42;;;;;;;0.00;0.00;;;;;;;7.99;92.45;102611.97;4890314;29;20144;-81
2023/02/04 09:31:07;;;;;;;0.00;0.00;;;;;;;8.01;92.41;102615.31;4896691;29;20043;-80
2023/02/04 09:33:37;;;;;;;0.00;0.00;;;;;;;7.95;91.97;102599.78;4882188;29;20036;-80
2023/02/04 09:37:19;;;;;;;;;;;;;;;;;;;;;
2023/02/04 09:40:21;;;;;;;;;;;;;;;;;;;;;
2023/02/04 09:46:48;;;;;;;0.00;0.00;;;;;;;8.19;90.10;102593.91;4895456;29;20680;-79
2023/02/04 09:49:14;;;;;;;0.00;0.00;;;;;;;8.47;90.11;102604.00;4902881;29;20020;-79
2023/02/04 09:51:45;;;;;;;0.00;0.00;;;;;;;8.45;90.13;102597.06;4897080;29;20036;-80
2023/02/04 09:54:42;;;;;;;;;;;;;;;;;;;;;
2023/02/04 09:57:29;;;;;;;;;;;;;;;;;;;;;
2023/02/04 10:00:54;;;;;;;0.00;0.00;;;;;;;8.65;89.40;102608.13;4915443;29;20088;-79
2023/02/04 10:11:02;;;;;;;;;;;;;;;;;;;;;
2023/02/04 10:17:20;;;;;;;0.00;0.00;;;;;;;8.96;87.00;102632.22;4868092;29;20499;-80
2023/02/04 10:26:04;;;;;;;0.00;0.00;;;;;;;8.83;86.65;102613.88;4914187;29;20492;-80
2023/02/04 10:28:34;;;;;;;0.00;0.00;;;;;;;8.81;85.64;102615.97;4901916;29;20063;-80
2023/02/04 10:31:48;;;;;;;0.00;0.00;;;;;;;8.71;85.62;102599.13;4897970;29;20179;-80
2023/02/04 10:34:41;;;;;;;;;;;;;;;;;;;;;
2023/02/04 10:37:33;;;;;;;;;;;;;;;;;;;;;
2023/02/04 10:40:39;;;;;;;;;;;;;;;;;;;;;
2023/02/04 10:43:46;;;;;;;;;;;;;;;;;;;;;
2023/02/04 10:46:47;;;;;;;0.00;0.00;;;;;;;8.68;84.37;102624.06;4898600;29;20040;-79
2023/02/04 10:49:22;;;;;;;0.00;0.00;;;;;;;8.75;85.22;102619.50;4890426;29;20036;-79
2023/02/04 11:01:50;;;;;;;0.00;0.00;;;;;;;8.91;83.04;102626.53;4768131;30;20086;-81
2023/02/04 11:04:56;;;;;;;0.00;0.00;;;;;;;9.04;82.50;102656.63;4796187;29;20069;-81
2023/02/04 11:11:48;;;;;;;0.00;0.00;;;;;;;8.90;81.55;102647.50;4873472;29;20117;-80
2023/02/04 11:14:36;;;;;;;0.00;0.00;;;;;;;8.97;81.54;102660.38;4776450;30;20108;-80
2023/02/04 11:17:04;;;;;;;0.00;0.00;;;;;;;9.03;81.48;102656.81;4771403;29;20042;-83
2023/02/04 11:19:37;;;;;;;0.00;0.00;;;;;;;9.03;82.10;102645.91;4859451;29;20124;-80
2023/02/04 11:22:06;;;;;;;0.00;0.00;;;;;;;9.04;81.68;102631.22;4889383;29;20032;-80
2023/02/04 11:24:35;;;;;;;0.00;0.00;;;;;;;9.04;80.58;102631.22;4894738;29;20063;-81
2023/02/04 11:27:07;;;;;;;0.00;0.00;;;;;;;9.19;80.97;102655.66;4899282;29;20024;-80
2023/02/04 11:29:51;;;;;;;0.00;0.00;;;;;;;9.08;80.33;102637.94;4896166;29;20388;-81
2023/02/04 11:32:37;;;;;;;0.00;0.00;;;;;;;9.08;80.61;102646.13;4900242;29;20044;-81
2023/02/04 11:35:07;;;;;;;0.00;0.00;;;;;;;9.17;80.97;102650.41;4881549;29;20091;-79
2023/02/04 11:37:36;;;;;;;0.00;0.00;;;;;;;9.20;81.15;102639.06;4908415;29;20391;-80
2023/02/04 11:40:24;;;;;;;0.00;0.00;;;;;;;9.35;81.02;102657.22;4893498;29;21319;-82
2023/02/04 11:42:56;;;;;;;0.00;0.00;;;;;;;9.28;80.98;102632.59;4914304;29;20116;-81
2023/02/04 11:45:33;;;;;;;0.00;0.00;;;;;;;9.37;79.92;102636.81;4894212;29;20025;-81
2023/02/04 11:48:02;;;;;;;0.00;0.00;;;;;;;9.47;79.62;102647.38;4894326;29;20047;-80
2023/02/04 11:50:33;;;;;;;0.00;0.00;;;;;;;9.55;79.25;102660.84;4893329;29;20031;-81
2023/02/04 11:53:05;;;;;;;0.00;0.00;;;;;;;9.55;79.61;102649.94;4893741;29;20023;-82
2023/02/04 11:55:34;;;;;;;0.00;0.00;;;;;;;9.67;79.52;102652.09;4854490;29;20456;-81
2023/02/04 11:58:12;;;;;;;0.00;0.00;;;;;;;9.66;78.73;102639.47;4889296;29;20043;-81
2023/02/04 12:00:38;;;;;;;0.00;0.00;;;;;;;9.48;77.77;102616.28;4899363;29;20036;-81
2023/02/04 12:03:20;;;;;;;0.00;0.00;;;;;;;9.55;77.02;102632.69;4881212;29;20035;-80
2023/02/04 12:05:48;;;;;;;0.00;0.00;;;;;;;9.68;76.81;102648.28;4885670;29;20171;-81
2023/02/04 12:08:32;;;;;;;0.00;0.00;;;;;;;9.70;76.67;102652.50;4900492;29;20111;-80
2023/02/04 12:11:08;;;;;;;;;;;;;;;;;;;;;
2023/02/04 12:13:54;;;;;;;0.00;0.00;;;;;;;9.62;77.12;102628.09;4903961;29;20024;-81
2023/02/04 12:16:20;;;;;;;0.00;0.00;;;;;;;9.56;76.67;102621.59;4891060;29;20021;-82
2023/02/04 12:19:00;;;;;;;0.00;0.00;;;;;;;9.79;76.18;102645.78;4885675;29;20117;-82
2023/02/04 12:21:27;;;;;;;0.00;0.00;;;;;;;9.85;75.64;102635.09;4875264;29;20502;-80
2023/02/04 12:23:53;;;;;;;0.00;0.00;;;;;;;9.92;74.62;102650.44;4895455;29;20039;-80
2023/02/04 12:26:18;;;;;;;0.00;0.00;;;;;;;9.73;74.83;102618.47;4882424;29;21111;-80
2023/02/04 12:28:44;;;;;;;0.08;0.08;;;;;;;9.92;75.39;102638.69;4887866;29;20083;-81
2023/02/04 12:31:09;;;;;;;0.00;0.00;;;;;;;9.99;75.09;102638.66;4899655;29;20032;-81
2023/02/04 12:33:37;;;;;;;0.00;0.00;;;;;;;9.98;75.14;102642.47;4902886;29;20036;-82
2023/02/04 12:36:03;;;;;;;0.00;0.00;;;;;;;10.01;74.86;102651.09;4895212;29;20092;-81
2023/02/04 12:38:46;;;;;;;0.00;0.00;;;;;;;10.05;74.91;102637.88;4894025;29;20016;-81
2023/02/04 12:41:19;;;;;;;0.00;0.00;;;;;;;10.20;74.03;102660.38;4905165;29;20040;-81
2023/02/04 12:43:53;;;;;;;0.00;0.00;;;;;;;10.09;73.16;102647.31;4886752;29;20040;-81
2023/02/04 12:46:21;;;;;;;0.00;0.00;;;;;;;10.16;72.31;102639.13;4881112;29;20033;-81
2023/02/04 12:48:56;;;;;;;;;;;;;;;;;;;;;
2023/02/04 12:51:22;;;;;;;0.00;0.00;;;;;;;10.17;71.69;102641.66;4902259;29;20123;-80
2023/02/04 12:53:53;;;;;;;0.00;0.00;;;;;;;9.91;71.75;102613.22;4900908;29;20494;-81
2023/02/04 12:56:19;;;;;;;0.00;0.00;;;;;;;10.05;72.38;102643.34;4901195;29;20035;-82
2023/02/04 12:58:45;;;;;;;0.00;0.00;;;;;;;10.09;73.32;102641.84;4881860;29;20062;-80
2023/02/04 13:01:13;;;;;;;0.00;0.00;;;;;;;10.06;73.58;102628.59;4893818;29;20024;-80
2023/02/04 13:03:39;;;;;;;0.00;0.00;;;;;;;10.15;73.24;102643.75;4882810;29;20048;-82
2023/02/04 13:06:05;;;;;;;0.00;0.00;;;;;;;10.04;73.22;102636.16;4882041;29;20032;-81
2023/02/04 13:08:30;;;;;;;0.00;0.00;;;;;;;9.92;72.99;102627.75;4891103;29;20028;-82
2023/02/04 13:10:58;;;;;;;0.00;0.00;;;;;;;10.06;73.70;102662.25;4893459;29;20084;-79
2023/02/04 13:13:23;;;;;;;0.00;0.00;;;;;;;10.05;73.78;102643.34;4886342;29;20040;-80
2023/02/04 13:15:52;;;;;;;0.00;0.00;;;;;;;10.10;74.33;102647.13;4862985;29;20040;-81
2023/02/04 13:18:17;;;;;;;0.00;0.00;;;;;;;10.10;73.98;102625.25;4895739;29;20789;-81
2023/02/04 13:20:45;;;;;;;0.00;0.00;;;;;;;10.12;73.72;102627.78;4894580;29;20032;-80
2023/02/04 13:23:11;;;;;;;0.00;0.00;;;;;;;10.18;73.57;102632.41;4899320;29;20027;-81
2023/02/04 13:25:36;;;;;;;0.00;0.00;;;;;;;10.25;73.87;102622.31;4884949;29;20032;-81
2023/02/04 13:28:14;;;;;;;;;;;;;;;;;;;;;
2023/02/04 13:30:40;;;;;;;0.00;0.00;;;;;;;10.42;73.53;102605.50;4914386;29;20402;-81
2023/02/04 13:33:08;;;;;;;0.00;0.00;;;;;;;10.50;72.62;102623.59;4894353;29;20116;-80
2023/02/04 13:35:34;;;;;;;0.00;0.00;;;;;;;10.38;71.65;102616.03;4875165;29;20119;-81
2023/02/04 13:38:02;;;;;;;0.00;0.00;;;;;;;10.35;70.88;102621.06;4860842;29;20971;-81
2023/02/04 13:40:38;;;;;;;0.00;0.00;;;;;;;10.36;70.91;102628.22;4891821;29;20032;-81
2023/02/04 13:43:03;;;;;;;0.00;0.00;;;;;;;10.14;70.96;102603.78;4890051;29;20024;-82
2023/02/04 13:45:29;;;;;;;0.00;0.00;;;;;;;10.03;71.23;102586.13;4890021;29;20030;-79
2023/02/04 13:47:54;;;;;;;0.00;0.00;;;;;;;10.09;70.95;102601.69;4895658;29;20384;-81
2023/02/04 13:50:22;;;;;;;0.00;0.00;;;;;;;10.05;70.51;102605.06;4874282;29;20043;-80
2023/02/04 13:52:47;;;;;;;0.00;0.00;;;;;;;10.05;71.48;102610.53;4896845;29;20525;-84